createdAt,value
2023-01-06T00:01:22.697Z,76650.88
2023-01-06T00:03:52.095Z,76640.47
2023-01-06T00:06:22.974Z,76655.03
2023-01-06T00:08:52.567Z,76648.78
2023-01-06T00:11:20.253Z,76663.34
2023-01-06T00:13:48.678Z,76663.34
2023-01-06T00:16:20.359Z,76659.19
2023-01-06T00:18:48.749Z,76665.44
2023-01-06T00:21:17.040Z,76673.75
2023-01-06T00:23:45.038Z,76673.75
2023-01-06T00:26:14.073Z,76686.22
2023-01-06T00:28:42.030Z,76682.06
2023-01-06T00:31:12.023Z,76686.22
2023-01-06T00:33:40.463Z,76690.38
2023-01-06T00:36:09.413Z,76698.69
2023-01-06T00:38:37.943Z,76694.53
2023-01-06T00:41:26.870Z,76702.84
2023-01-06T00:43:56.608Z,76700.78
2023-01-06T00:46:26.891Z,76715.31
2023-01-06T00:49:04.678Z,76717.41
2023-01-06T00:51:33.404Z,76715.31
2023-01-06T00:54:01.985Z,76715.31
2023-01-06T00:56:29.909Z,76719.47
2023-01-06T00:58:59.431Z,76727.81
2023-01-06T01:01:27.242Z,76738.19
2023-01-06T01:03:56.071Z,76725.72
2023-01-06T01:06:23.904Z,76727.81
2023-01-06T01:08:54.757Z,76742.34
2023-01-06T01:11:41.082Z,76744.44
2023-01-06T01:14:11.232Z,76748.59
2023-01-06T01:16:39.425Z,76748.59
2023-01-06T01:19:07.786Z,76756.91
2023-01-06T01:21:35.510Z,76759.00
2023-01-06T01:24:03.590Z,76771.47
2023-01-06T01:26:31.385Z,76769.38
2023-01-06T01:28:59.499Z,76767.31
2023-01-06T01:31:28.715Z,76777.69
2023-01-06T01:33:56.668Z,76777.69
2023-01-06T01:36:24.604Z,76783.94
2023-01-06T01:38:52.600Z,76790.19
2023-01-06T01:41:23.226Z,76786.03
2023-01-06T01:43:54.134Z,76794.34
2023-01-06T01:46:26.652Z,76817.22
2023-01-06T01:48:59.278Z,76800.56
2023-01-06T01:51:29.361Z,76810.97
2023-01-06T01:54:02.039Z,76823.44
2023-01-06T01:56:35.463Z,76823.44
2023-01-06T01:59:07.476Z,76821.38
2023-01-06T02:01:35.824Z,76840.09
2023-01-06T02:04:06.504Z,76848.41
2023-01-06T02:06:34.267Z,76840.09
2023-01-06T02:09:05.479Z,76860.88
2023-01-06T02:11:34.881Z,76871.28
2023-01-06T02:14:10.889Z,76877.50
2023-01-06T02:16:47.935Z,76871.28
2023-01-06T02:19:35.430Z,76890.00
2023-01-06T02:22:19.186Z,76894.16
2023-01-06T02:25:28.757Z,76890.00
2023-01-06T02:28:21.047Z,76902.47
2023-01-06T02:31:31.736Z,76898.31
2023-01-06T02:34:06.508Z,76896.22
2023-01-06T02:36:44.962Z,76914.94
2023-01-06T02:39:23.116Z,76906.63
2023-01-06T02:42:03.881Z,76910.78
2023-01-06T02:44:36.561Z,76902.47
2023-01-06T02:47:14.973Z,76919.09
2023-01-06T02:49:49.882Z,76917.03
2023-01-06T02:52:25.037Z,76906.63
2023-01-06T02:54:58.195Z,76917.03
2023-01-06T02:57:36.852Z,76927.41
2023-01-06T03:00:13.661Z,76927.41
2023-01-06T03:02:46.917Z,76923.25
2023-01-06T03:05:18.292Z,76931.56
2023-01-06T03:07:48.334Z,76935.72
2023-01-06T03:10:19.807Z,76939.88
2023-01-06T03:12:53.885Z,76944.06
2023-01-06T03:15:22.364Z,76941.97
2023-01-06T03:17:51.839Z,76939.88
2023-01-06T03:20:20.728Z,76933.66
2023-01-06T03:22:49.548Z,76952.38
2023-01-06T03:25:17.642Z,76946.13
2023-01-06T03:27:45.672Z,76937.81
2023-01-06T03:30:14.220Z,76948.22
2023-01-06T03:32:55.597Z,76935.72
2023-01-06T03:35:37.081Z,76948.22
2023-01-06T03:38:18.242Z,76935.72
2023-01-06T03:40:54.222Z,76948.22
2023-01-06T03:43:27.817Z,76954.44
2023-01-06T03:46:12.821Z,76956.53
2023-01-06T03:48:52.463Z,76946.13
2023-01-06T03:51:33.985Z,76952.38
2023-01-06T03:54:08.244Z,76966.94
2023-01-06T03:56:40.479Z,76969.00
2023-01-06T03:59:13.412Z,76969.00
2023-01-06T04:01:43.396Z,76964.84
2023-01-06T04:04:13.090Z,76977.31
2023-01-06T04:06:41.022Z,76969.00
2023-01-06T04:09:09.026Z,76977.31
2023-01-06T04:11:50.877Z,76977.31
2023-01-06T04:14:18.881Z,76977.31
2023-01-06T04:16:46.637Z,76989.81
2023-01-06T04:19:15.911Z,77006.44
2023-01-06T04:21:43.722Z,76993.97
2023-01-06T04:24:12.053Z,76998.13
2023-01-06T04:26:39.762Z,77000.19
2023-01-06T04:29:07.793Z,76993.97
2023-01-06T04:31:35.910Z,76993.97
2023-01-06T04:34:04.004Z,76993.97
2023-01-06T04:36:33.238Z,76996.03
2023-01-06T04:39:01.787Z,76989.81
2023-01-06T04:41:29.529Z,77004.34
2023-01-06T04:43:58.249Z,77006.44
2023-01-06T04:46:25.996Z,77006.44
2023-01-06T04:48:53.961Z,77014.75
2023-01-06T04:51:21.671Z,77010.59
2023-01-06T04:53:51.011Z,77016.84
2023-01-06T04:56:19.028Z,77018.91
2023-01-06T04:58:47.415Z,77023.06
2023-01-06T05:01:15.438Z,77023.06
2023-01-06T05:03:43.489Z,77029.31
2023-01-06T05:06:12.982Z,77031.38
2023-01-06T05:08:42.314Z,77031.38
2023-01-06T05:11:14.117Z,77048.03
2023-01-06T05:13:42.643Z,77041.78
2023-01-06T05:16:12.379Z,77048.03
2023-01-06T05:18:40.407Z,77052.19
2023-01-06T05:21:08.858Z,77052.19
2023-01-06T05:23:38.029Z,77054.25
2023-01-06T05:26:06.158Z,77052.19
2023-01-06T05:28:35.551Z,77056.34
2023-01-06T05:31:04.715Z,77058.41
2023-01-06T05:33:33.538Z,77060.50
2023-01-06T05:36:02.973Z,77064.66
2023-01-06T05:38:32.879Z,77060.50
2023-01-06T05:41:01.832Z,77072.97
2023-01-06T05:43:30.501Z,77064.66
2023-01-06T05:46:00.357Z,77077.13
2023-01-06T05:48:28.798Z,77064.66
2023-01-06T05:51:01.936Z,77077.13
2023-01-06T05:53:32.318Z,77079.22
2023-01-06T05:56:01.395Z,77081.28
2023-01-06T05:58:29.584Z,77075.06
2023-01-06T06:00:58.600Z,77093.78
2023-01-06T06:03:26.866Z,77097.94
2023-01-06T06:05:54.645Z,77089.59
2023-01-06T06:08:22.647Z,77089.59
2023-01-06T06:10:50.317Z,77089.59
2023-01-06T06:13:18.460Z,77079.22
2023-01-06T06:15:46.496Z,77102.09
2023-01-06T06:18:16.005Z,77097.94
2023-01-06T06:20:43.675Z,77104.16
2023-01-06T06:23:11.642Z,77118.72
2023-01-06T06:25:39.584Z,77118.72
2023-01-06T06:28:07.521Z,77127.03
2023-01-06T06:30:35.213Z,77129.13
2023-01-06T06:33:03.436Z,77129.13
2023-01-06T06:35:32.543Z,77152.00
2023-01-06T06:38:00.508Z,77143.69
2023-01-06T06:40:28.720Z,77154.06
2023-01-06T06:42:57.687Z,77168.63
2023-01-06T06:45:25.429Z,77181.09
2023-01-06T06:47:54.843Z,77197.75
2023-01-06T06:50:22.559Z,77195.66
2023-01-06T06:52:51.860Z,77197.75
2023-01-06T06:55:19.560Z,77168.63
2023-01-06T06:57:47.560Z,77172.78
2023-01-06T07:00:16.270Z,77164.47
2023-01-06T07:02:44.495Z,77149.91
2023-01-06T07:05:12.405Z,77158.22
2023-01-06T07:07:40.394Z,77160.31
2023-01-06T07:10:13.488Z,77145.75
2023-01-06T07:12:41.934Z,77143.69
2023-01-06T07:15:10.569Z,77147.84
2023-01-06T07:17:39.433Z,77152.00
2023-01-06T07:20:07.755Z,77156.16
2023-01-06T07:22:38.165Z,77164.47
2023-01-06T07:25:07.096Z,77168.63
2023-01-06T07:27:37.250Z,77160.31
2023-01-06T07:30:06.399Z,77160.31
2023-01-06T07:32:34.542Z,77141.59
2023-01-06T07:35:02.342Z,77156.16
2023-01-06T07:37:30.314Z,77147.84
2023-01-06T07:39:58.071Z,77143.69
2023-01-06T07:42:26.182Z,77141.59
2023-01-06T07:44:55.238Z,77135.34
2023-01-06T07:47:23.580Z,77127.03
2023-01-06T07:49:51.286Z,77135.34
2023-01-06T07:52:19.531Z,77124.97
2023-01-06T07:54:47.343Z,77120.81
2023-01-06T07:57:17.936Z,77118.72
2023-01-06T07:59:45.845Z,77127.03
2023-01-06T08:02:15.268Z,77131.19
2023-01-06T08:04:43.188Z,77131.19
2023-01-06T08:07:11.254Z,77122.88
2023-01-06T08:09:39.334Z,77118.72
2023-01-06T08:12:08.208Z,77127.03
2023-01-06T08:14:35.980Z,77133.28
2023-01-06T08:17:04.014Z,77160.31
2023-01-06T08:19:33.272Z,77156.16
2023-01-06T08:22:01.317Z,77152.00
2023-01-06T08:24:31.869Z,77135.34
2023-01-06T08:27:00.603Z,77106.25
2023-01-06T08:29:28.919Z,77122.88
2023-01-06T08:32:09.501Z,77131.19
2023-01-06T08:34:39.661Z,77118.72
2023-01-06T08:37:07.752Z,77127.03
2023-01-06T08:39:35.651Z,77122.88
2023-01-06T08:42:03.791Z,77129.13
2023-01-06T08:44:31.762Z,77118.72
2023-01-06T08:46:59.830Z,77118.72
2023-01-06T08:49:27.675Z,77112.47
2023-01-06T08:51:57.005Z,77110.41
2023-01-06T08:54:24.756Z,77102.09
2023-01-06T08:56:52.724Z,77102.09
2023-01-06T08:59:20.487Z,77106.25
2023-01-06T09:01:48.815Z,77118.72
2023-01-06T09:04:16.710Z,77106.25
2023-01-06T09:06:44.832Z,77110.41
2023-01-06T09:09:14.099Z,77097.94
2023-01-06T09:11:43.328Z,77122.88
2023-01-06T09:14:11.561Z,77110.41
2023-01-06T09:16:39.550Z,77122.88
2023-01-06T09:19:07.304Z,77110.41
2023-01-06T09:21:35.260Z,77093.78
2023-01-06T09:24:03.069Z,77110.41
2023-01-06T09:26:32.581Z,77091.69
2023-01-06T09:29:00.297Z,77070.91
2023-01-06T09:31:28.321Z,77085.44
2023-01-06T09:33:56.290Z,77083.38
2023-01-06T09:36:24.590Z,77085.44
2023-01-06T09:38:52.333Z,77070.91
2023-01-06T09:41:48.726Z,77068.81
2023-01-06T09:44:23.840Z,77048.03
2023-01-06T09:46:53.690Z,77056.34
2023-01-06T09:49:28.380Z,77052.19
2023-01-06T09:52:00.745Z,77048.03
2023-01-06T09:54:32.394Z,77056.34
2023-01-06T09:57:05.469Z,77039.69
2023-01-06T09:59:42.811Z,77029.31
2023-01-06T10:02:15.621Z,77014.75
2023-01-06T10:04:43.537Z,77006.44
2023-01-06T10:07:20.873Z,77002.28
2023-01-06T10:10:02.542Z,77002.28
2023-01-06T10:12:48.024Z,77000.19
2023-01-06T10:15:27.768Z,77006.44
2023-01-06T10:18:13.957Z,77018.91
2023-01-06T10:20:55.336Z,77006.44
2023-01-06T10:23:36.889Z,76985.63
2023-01-06T10:26:12.505Z,76979.41
2023-01-06T10:28:43.480Z,76979.41
2023-01-06T10:31:17.434Z,76966.94
2023-01-06T10:33:49.803Z,76964.84
2023-01-06T10:36:23.933Z,76952.38
2023-01-06T10:38:54.472Z,76939.88
2023-01-06T10:41:28.177Z,76952.38
2023-01-06T10:43:56.315Z,76964.84
2023-01-06T10:46:29.547Z,76964.84
2023-01-06T10:48:57.757Z,76964.84
2023-01-06T10:51:36.887Z,76973.16
2023-01-06T10:54:10.568Z,76948.22
2023-01-06T10:56:40.915Z,76969.00
2023-01-06T10:59:11.021Z,76973.16
2023-01-06T11:01:50.307Z,76948.22
2023-01-06T11:04:19.905Z,76944.06
2023-01-06T11:06:51.614Z,76946.13
2023-01-06T11:09:30.666Z,76927.41
2023-01-06T11:12:02.136Z,76917.03
2023-01-06T11:14:32.532Z,76910.78
2023-01-06T11:17:04.431Z,76919.09
2023-01-06T11:19:39.749Z,76900.38
2023-01-06T11:22:34.832Z,76890.00
2023-01-06T11:25:04.787Z,76877.50
2023-01-06T11:27:32.493Z,76856.72
2023-01-06T11:30:21.154Z,76852.56
2023-01-06T11:32:50.441Z,76840.09
2023-01-06T11:35:23.145Z,76835.94
2023-01-06T11:37:58.693Z,76831.75
2023-01-06T11:40:32.119Z,76823.44
2023-01-06T11:43:07.266Z,76810.97
2023-01-06T11:45:37.323Z,76798.50
2023-01-06T11:48:15.082Z,76777.69
2023-01-06T11:50:51.726Z,76767.31
2023-01-06T11:53:21.288Z,76761.06
2023-01-06T11:56:02.434Z,76756.91
2023-01-06T11:58:41.301Z,76761.06
2023-01-06T12:01:18.041Z,76746.50
2023-01-06T12:03:51.000Z,76746.50
2023-01-06T12:06:29.155Z,76734.03
2023-01-06T12:09:00.930Z,76717.41
2023-01-06T12:11:38.008Z,76707.00
2023-01-06T12:14:19.643Z,76711.16
2023-01-06T12:17:02.652Z,76686.22
2023-01-06T12:19:41.011Z,76684.13
2023-01-06T12:22:22.771Z,76688.28
2023-01-06T12:24:52.049Z,76665.44
2023-01-06T12:27:29.205Z,76677.91
2023-01-06T12:30:01.688Z,76665.44
2023-01-06T12:32:37.384Z,76648.78
2023-01-06T12:35:12.500Z,76619.69
2023-01-06T12:37:46.491Z,76632.16
2023-01-06T12:40:22.302Z,76619.69
2023-01-06T12:42:56.887Z,76607.22
2023-01-06T12:45:35.181Z,76607.22
2023-01-06T12:48:13.163Z,76590.56
2023-01-06T12:50:47.206Z,76584.34
2023-01-06T12:53:21.228Z,76569.78
2023-01-06T12:56:01.237Z,76582.25
2023-01-06T12:58:36.934Z,76553.16
2023-01-06T13:01:10.328Z,76559.38
2023-01-06T13:04:25.945Z,76565.63
2023-01-06T13:07:08.753Z,76557.31
2023-01-06T13:09:54.367Z,76549.00
2023-01-06T13:12:39.293Z,76528.19
2023-01-06T13:15:15.834Z,76521.97
2023-01-06T13:17:48.367Z,76519.88
2023-01-06T13:20:22.182Z,76509.47
2023-01-06T13:23:04.775Z,76519.88
2023-01-06T13:25:57.719Z,76511.56
2023-01-06T13:28:30.418Z,76507.41
2023-01-06T13:31:23.191Z,76515.72
2023-01-06T13:34:14.630Z,76499.09
2023-01-06T13:36:55.763Z,76505.31
2023-01-06T13:39:28.203Z,76507.41
2023-01-06T13:41:58.751Z,76513.63
2023-01-06T13:44:31.438Z,76507.41
2023-01-06T13:47:05.165Z,76524.03
2023-01-06T13:49:34.293Z,76534.44
2023-01-06T13:52:04.378Z,76540.66
2023-01-06T13:55:03.606Z,76565.63
2023-01-06T13:57:38.081Z,76561.47
2023-01-06T14:00:19.871Z,76557.31
2023-01-06T14:03:03.528Z,76549.00
2023-01-06T14:05:58.302Z,76538.59
2023-01-06T14:08:39.649Z,76542.75
2023-01-06T14:11:29.530Z,76546.91
2023-01-06T14:13:59.373Z,76536.50
2023-01-06T14:16:42.029Z,76521.97
2023-01-06T14:19:17.304Z,76524.03
2023-01-06T14:21:46.389Z,76536.50
2023-01-06T14:24:26.861Z,76540.66
2023-01-06T14:27:00.934Z,76524.03
2023-01-06T14:29:49.425Z,76524.03
2023-01-06T14:32:54.667Z,76490.78
2023-01-06T14:35:30.074Z,76494.94
2023-01-06T14:38:02.784Z,76534.44
2023-01-06T14:40:33.751Z,76536.50
2023-01-06T14:43:22.904Z,76546.91
2023-01-06T14:45:52.076Z,76559.38
2023-01-06T14:48:24.322Z,76571.84
2023-01-06T14:50:58.830Z,76565.63
2023-01-06T14:53:32.050Z,76573.94
2023-01-06T14:56:01.232Z,76567.69
2023-01-06T14:58:32.600Z,76569.78
2023-01-06T15:01:03.009Z,76569.78
2023-01-06T15:03:32.500Z,76561.47
2023-01-06T15:06:12.734Z,76490.78
2023-01-06T15:08:40.447Z,76507.41
2023-01-06T15:11:24.238Z,76540.66
2023-01-06T15:13:53.396Z,76557.31
2023-01-06T15:16:29.241Z,76553.16
2023-01-06T15:18:57.118Z,76565.63
2023-01-06T15:21:25.583Z,76549.00
2023-01-06T15:23:55.498Z,76517.81
2023-01-06T15:26:27.164Z,76519.88
2023-01-06T15:29:01.977Z,76532.34
2023-01-06T15:31:33.625Z,76546.91
2023-01-06T15:34:04.053Z,76555.22
2023-01-06T15:36:33.464Z,76565.63
2023-01-06T15:39:03.268Z,76557.31
2023-01-06T15:41:36.604Z,76565.63
2023-01-06T15:44:30.281Z,76582.25
2023-01-06T15:47:09.166Z,76573.94
2023-01-06T15:49:41.488Z,76578.09
2023-01-06T15:52:18.770Z,76573.94
2023-01-06T15:54:47.411Z,76573.94
2023-01-06T15:57:17.356Z,76557.31
2023-01-06T15:59:54.852Z,76540.66
2023-01-06T16:02:26.192Z,76542.75
2023-01-06T16:04:54.789Z,76561.47
2023-01-06T16:07:34.250Z,76567.69
2023-01-06T16:10:02.035Z,76567.69
2023-01-06T16:12:30.038Z,76555.22
2023-01-06T16:14:59.209Z,76542.75
2023-01-06T16:17:31.239Z,76524.03
2023-01-06T16:20:03.171Z,76524.03
2023-01-06T16:22:37.790Z,76532.34
2023-01-06T16:25:08.602Z,76536.50
2023-01-06T16:27:36.726Z,76538.59
2023-01-06T16:30:21.932Z,76557.31
2023-01-06T16:32:52.543Z,76561.47
2023-01-06T16:35:22.189Z,76561.47
2023-01-06T16:37:50.735Z,76555.22
2023-01-06T16:40:20.933Z,76549.00
2023-01-06T16:42:49.936Z,76542.75
2023-01-06T16:45:24.859Z,76528.19
2023-01-06T16:47:53.743Z,76524.03
2023-01-06T16:50:26.972Z,76515.72
2023-01-06T16:53:14.711Z,76505.31
2023-01-06T16:55:43.413Z,76515.72
2023-01-06T16:58:17.309Z,76503.25
2023-01-06T17:00:51.440Z,76505.31
2023-01-06T17:03:21.908Z,76472.06
2023-01-06T17:05:49.904Z,76449.19
2023-01-06T17:08:22.042Z,76440.88
2023-01-06T17:10:49.804Z,76424.25
2023-01-06T17:13:36.635Z,76428.41
2023-01-06T17:16:15.407Z,76411.75
2023-01-06T17:18:52.015Z,76399.28
2023-01-06T17:21:22.303Z,76390.97
2023-01-06T17:23:53.938Z,76397.22
2023-01-06T17:26:24.375Z,76374.34
2023-01-06T17:28:54.536Z,76378.50
2023-01-06T17:31:32.284Z,76403.44
2023-01-06T17:34:10.765Z,76432.56
2023-01-06T17:36:40.271Z,76430.47
2023-01-06T17:39:16.700Z,76442.94
2023-01-06T17:41:44.498Z,76476.22
2023-01-06T17:44:16.665Z,76488.69
2023-01-06T17:46:46.999Z,76499.09
2023-01-06T17:49:35.203Z,76503.25
2023-01-06T17:52:14.408Z,76507.41
2023-01-06T17:55:02.203Z,76521.97
2023-01-06T17:57:29.915Z,76511.56
2023-01-06T17:59:58.390Z,76492.84
2023-01-06T18:02:40.008Z,76453.34
2023-01-06T18:06:01.767Z,76447.09
2023-01-06T18:08:32.631Z,76451.28
2023-01-06T18:11:18.344Z,76445.03
2023-01-06T18:13:46.499Z,76469.97
2023-01-06T18:16:26.737Z,76482.44
2023-01-06T18:19:03.092Z,76492.84
2023-01-06T18:21:37.155Z,76478.28
2023-01-06T18:24:17.912Z,76482.44
2023-01-06T18:26:49.981Z,76467.91
2023-01-06T18:29:20.149Z,76465.81
2023-01-06T18:31:50.695Z,76459.59
2023-01-06T18:34:26.565Z,76440.88
2023-01-06T18:36:56.468Z,76415.91
2023-01-06T18:39:25.927Z,76432.56
2023-01-06T18:42:16.763Z,76436.72
2023-01-06T18:44:44.766Z,76445.03
2023-01-06T18:47:15.385Z,76438.78
2023-01-06T18:49:44.622Z,76436.72
2023-01-06T18:52:35.219Z,76409.69
2023-01-06T18:55:03.719Z,76407.59
2023-01-06T18:57:33.073Z,76413.84
2023-01-06T19:00:23.600Z,76395.13
2023-01-06T19:02:52.700Z,76382.66
2023-01-06T19:05:22.040Z,76382.66
2023-01-06T19:07:52.591Z,76420.09
2023-01-06T19:10:27.712Z,76430.47
2023-01-06T19:13:00.202Z,76407.59
2023-01-06T19:15:28.206Z,76397.22
2023-01-06T19:17:56.271Z,76399.28
2023-01-06T19:20:28.912Z,76432.56
2023-01-06T19:22:57.767Z,76428.41
2023-01-06T19:25:32.879Z,76445.03
2023-01-06T19:28:03.051Z,76457.50
2023-01-06T19:30:42.495Z,76461.66
2023-01-06T19:33:22.717Z,76474.13
2023-01-06T19:35:52.198Z,76478.28
2023-01-06T19:38:26.380Z,76469.97
2023-01-06T19:40:55.697Z,76432.56
2023-01-06T19:43:27.633Z,76397.22
2023-01-06T19:45:55.515Z,76390.97
2023-01-06T19:48:25.644Z,76393.06
2023-01-06T19:51:02.965Z,76382.66
2023-01-06T19:53:43.412Z,76370.19
2023-01-06T19:56:18.713Z,76361.88
2023-01-06T19:58:52.822Z,76357.72
2023-01-06T20:01:22.191Z,76341.06
2023-01-06T20:03:54.050Z,76347.31
2023-01-06T20:06:24.510Z,76349.41
2023-01-06T20:08:53.869Z,76366.03
2023-01-06T20:11:24.712Z,76388.91
2023-01-06T20:13:53.061Z,76403.44
2023-01-06T20:16:21.036Z,76407.59
2023-01-06T20:18:50.534Z,76420.09
2023-01-06T20:21:18.219Z,76422.16
2023-01-06T20:23:47.861Z,76420.09
2023-01-06T20:26:15.751Z,76428.41
2023-01-06T20:28:43.739Z,76428.41
2023-01-06T20:31:11.399Z,76436.72
2023-01-06T20:33:39.527Z,76453.34
2023-01-06T20:36:08.166Z,76492.84
2023-01-06T20:38:36.233Z,76536.50
2023-01-06T20:41:06.671Z,76567.69
2023-01-06T20:43:34.736Z,76586.41
2023-01-06T20:46:02.477Z,76586.41
2023-01-06T20:48:30.541Z,76590.56
2023-01-06T20:50:58.585Z,76576.00
2023-01-06T20:53:26.616Z,76573.94
2023-01-06T20:55:54.528Z,76565.63
2023-01-06T20:58:23.812Z,76557.31
2023-01-06T21:00:51.639Z,76557.31
2023-01-06T21:03:19.787Z,76561.47
2023-01-06T21:05:47.556Z,76565.63
2023-01-06T21:08:15.516Z,76573.94
2023-01-06T21:10:43.277Z,76571.84
2023-01-06T21:13:11.255Z,76573.94
2023-01-06T21:15:40.309Z,76561.47
2023-01-06T21:18:08.497Z,76569.78
2023-01-06T21:20:36.188Z,76567.69
2023-01-06T21:23:04.155Z,76557.31
2023-01-06T21:25:32.281Z,76559.38
2023-01-06T21:28:00.209Z,76565.63
2023-01-06T21:30:29.013Z,76571.84
2023-01-06T21:32:58.964Z,76559.38
2023-01-06T21:35:26.679Z,76549.00
2023-01-06T21:37:54.655Z,76542.75
2023-01-06T21:40:22.641Z,76521.97
2023-01-06T21:43:08.446Z,76515.72
2023-01-06T21:45:36.259Z,76534.44
2023-01-06T21:48:06.716Z,76536.50
2023-01-06T21:50:38.220Z,76528.19
2023-01-06T21:53:07.354Z,76519.88
2023-01-06T21:55:35.159Z,76519.88
2023-01-06T21:58:03.406Z,76511.56
2023-01-06T22:00:31.813Z,76486.63
2023-01-06T22:02:59.920Z,76478.28
2023-01-06T22:05:29.484Z,76488.69
2023-01-06T22:07:57.581Z,76478.28
2023-01-06T22:10:27.466Z,76474.13
2023-01-06T22:12:59.311Z,76449.19
2023-01-06T22:15:28.926Z,76445.03
2023-01-06T22:17:59.678Z,76436.72
2023-01-06T22:20:29.854Z,76424.25
2023-01-06T22:22:58.452Z,76424.25
2023-01-06T22:25:26.118Z,76418.00
2023-01-06T22:27:54.553Z,76424.25
2023-01-06T22:30:22.255Z,76403.44
2023-01-06T22:32:50.225Z,76424.25
2023-01-06T22:35:19.300Z,76413.84
2023-01-06T22:37:48.619Z,76424.25
2023-01-06T22:40:16.509Z,76424.25
2023-01-06T22:42:45.092Z,76424.25
2023-01-06T22:45:13.792Z,76415.91
2023-01-06T22:47:41.842Z,76415.91
2023-01-06T22:50:10.163Z,76422.16
2023-01-06T22:52:38.454Z,76415.91
2023-01-06T22:55:09.197Z,76415.91
2023-01-06T22:57:37.137Z,76424.25
2023-01-06T23:00:11.924Z,76424.25
2023-01-06T23:02:40.879Z,76424.25
2023-01-06T23:05:09.591Z,76426.31
2023-01-06T23:07:39.414Z,76407.59
2023-01-06T23:10:11.213Z,76420.09
2023-01-06T23:12:40.403Z,76432.56
2023-01-06T23:15:09.561Z,76436.72
2023-01-06T23:17:38.245Z,76409.69
2023-01-06T23:20:07.155Z,76395.13
2023-01-06T23:22:35.056Z,76413.84
2023-01-06T23:25:02.834Z,76409.69
2023-01-06T23:27:32.107Z,76415.91
2023-01-06T23:29:59.759Z,76411.75
2023-01-06T23:32:27.992Z,76411.75
2023-01-06T23:34:55.691Z,76415.91
2023-01-06T23:37:23.647Z,76413.84
2023-01-06T23:39:53.227Z,76415.91
2023-01-06T23:42:21.232Z,76420.09
2023-01-06T23:44:50.307Z,76420.09
2023-01-06T23:47:18.441Z,76411.75
2023-01-06T23:49:48.656Z,76422.16
2023-01-06T23:52:16.624Z,76413.84
2023-01-06T23:54:44.394Z,76420.09
2023-01-06T23:57:12.332Z,76411.75
2023-01-06T23:59:40.035Z,76411.75
